Главная страница
METAR-TAF:

METAR-TAF

Аэропорты :

Паго-Паго, Внешние малые острова США

широта: 14-20S, долгота: 170-43W, высота над уровнем моря: 3 м

Текущие метеонаблюдения

Эта сводка был подготовлена 52 минут назад, в 14:50 UTC
Ветер 10 Узел от восточно-юго-восточный
Температура 27°C
Влажность 79%
Давление 1013 hPa
Видимость: 16.1 км
Отдельные облака на высоте 2000 фута
Рассеянная облачность на высоте 10000 фута

METAR: NSTU 181450Z 11010KT 10SM SCT020 BKN100 27/23 A2990 RMK SLP124 8/170 T02710225 56012

Время: 04:42 (15:42 UTC)

Прогноз

Эта сводка был подготовлена 4 часа и 7 минут назад, в 11:35 UTC
Прогноз действительный с 18-го 12 UTC до 19-го 12 UTC
Ветер 10 Узел от юго-юго-восточный
Видимость: 10 км
Отдельные облака на высоте 1500 фута
Отдельные облака на высоте 4500 фута
Рассеянная облачность на высоте 10000 фута

TAF: NSTU 181135Z 1812/1912 15010KT P6SM SCT015 SCT045 BKN100

Метеонаблюдения и прогнозы для более 4000 аэропортов (сводки METAR и TAF).

Имеющиеся станции представлены на карте желтыми и красными точками.

Чтобы увидеть название станции, наведите на нее мышь.

Затем щелкните, чтобы увидеть метеонаблюдения и метеопрогнозы.

Управление картой: чтобы увеличить масштаб, щелкните зеленые кнопки с черным крестиком; чтобы уменьшить масштаб, щелкните зеленую кнопку с тире; для просмотра соседних карт щелкайте зеленые стрелки.


METAR-TAF: